Hersilia, Argentina
Current Conditions -  °F | °C
As of 2:00 AM on Tuesday 27 Jan 2015 (Local Time) from SACO Reporting Station
Broken Clouds Broken Clouds  
Wind Chill: 75°   Ceiling: 5000
Heat Index: 75°   Visibility: 6mi
Dew Point: 61°   Wind: 10mph
Humidity: 61%   Direction: 270°W
Pressure: 29.85"   Gusts: NA
Location:  30°S, 61.85°W
Report Text: SACO 270500Z 27009KT 9999 FEW030FEW035CB BKN050 24/16 Q1011
Loading
Personal Weather Stations






























Interactive Weather Map New forecast layout! Learn more

10-Day Weather Forecast

Advertisements
Track Severe Weather on mobile